Time,TemperatureF,DewpointF,PressureIn,WindDirection,WindDirectionDegrees,WindSpeedMPH,WindSpeedGustMPH,Humidity,HourlyPrecipIn,Conditions,Clouds,dailyrainin,SolarRadiationWatts/m^2,SoftwareType,DateUTC
2013-10-03 00:06:00,62.0,56.0,-100.00,NW,326,3.0,6.0,81,0.00,,,0.00,0.000000,,2013-10-03 04:06:00,
2013-10-03 00:14:00,62.0,56.0,-100.00,NW,326,3.0,6.0,81,0.00,,,0.00,0.000000,,2013-10-03 04:14:00,
2013-10-03 00:44:00,62.0,56.0,-100.00,NW,319,4.0,6.0,81,0.00,,,0.00,0.000000,,2013-10-03 04:44:00,
2013-10-03 00:53:00,62.0,56.0,-100.00,NW,319,4.0,6.0,81,0.00,,,0.00,0.000000,,2013-10-03 04:53:00,
2013-10-03 01:04:00,62.0,56.0,-100.00,NW,319,4.0,6.0,81,0.00,,,0.00,0.000000,,2013-10-03 05:04:00,
2013-10-03 01:13:00,62.0,56.0,-100.00,NW,319,4.0,6.0,81,0.00,,,0.00,0.000000,,2013-10-03 05:13:00,
2013-10-03 01:44:00,62.0,56.0,-100.00,NW,317,4.0,7.0,82,0.00,,,0.00,0.000000,,2013-10-03 05:44:00,
2013-10-03 01:52:00,62.0,56.0,-100.00,NW,317,4.0,7.0,82,0.00,,,0.00,0.000000,,2013-10-03 05:52:00,
2013-10-03 02:02:00,62.0,56.0,-100.00,NW,317,4.0,7.0,82,0.00,,,0.00,0.000000,,2013-10-03 06:02:00,
2013-10-03 02:12:00,62.0,56.0,-100.00,NW,317,4.0,7.0,82,0.00,,,0.00,0.000000,,2013-10-03 06:12:00,
2013-10-03 02:42:00,61.0,56.0,-100.00,NW,314,3.0,7.0,84,0.00,,,0.00,0.000000,,2013-10-03 06:42:00,
2013-10-03 02:52:00,61.0,56.0,-100.00,NW,314,3.0,7.0,84,0.00,,,0.00,0.000000,,2013-10-03 06:52:00,
2013-10-03 03:02:00,61.0,56.0,-100.00,NW,314,3.0,7.0,84,0.00,,,0.00,0.000000,,2013-10-03 07:02:00,
2013-10-03 03:11:00,61.0,56.0,-100.00,NW,314,3.0,7.0,84,0.00,,,0.00,0.000000,,2013-10-03 07:11:00,
2013-10-03 03:42:00,61.0,57.0,-100.00,NW,304,2.0,4.0,86,0.00,,,0.00,0.000000,,2013-10-03 07:42:00,
2013-10-03 03:52:00,61.0,57.0,-100.00,NW,304,2.0,4.0,86,0.00,,,0.00,0.000000,,2013-10-03 07:52:00,
2013-10-03 04:03:00,61.0,57.0,-100.00,NW,304,2.0,4.0,86,0.00,,,0.00,0.000000,,2013-10-03 08:03:00,
2013-10-03 04:12:00,61.0,57.0,-100.00,NW,304,2.0,4.0,86,0.00,,,0.00,0.000000,,2013-10-03 08:12:00,
2013-10-03 04:42:00,61.0,57.0,-100.00,WNW,297,3.0,5.0,86,0.00,,,0.00,0.000000,,2013-10-03 08:42:00,
2013-10-03 04:52:00,61.0,57.0,-100.00,WNW,297,3.0,5.0,86,0.00,,,0.00,0.000000,,2013-10-03 08:52:00,
2013-10-03 05:02:00,61.0,57.0,-100.00,WNW,297,3.0,5.0,86,0.00,,,0.00,0.000000,,2013-10-03 09:02:00,
2013-10-03 05:12:00,61.0,57.0,-100.00,WNW,297,3.0,5.0,86,0.00,,,0.00,0.000000,,2013-10-03 09:12:00,
2013-10-03 05:43:00,60.0,56.0,-100.00,WNW,302,3.0,5.0,87,0.00,,,0.00,0.000000,,2013-10-03 09:43:00,
2013-10-03 05:53:00,60.0,56.0,-100.00,WNW,302,3.0,5.0,87,0.00,,,0.00,0.000000,,2013-10-03 09:53:00,
2013-10-03 06:03:00,60.0,56.0,-100.00,WNW,302,3.0,5.0,87,0.00,,,0.00,0.000000,,2013-10-03 10:03:00,
2013-10-03 06:13:00,60.0,56.0,-100.00,WNW,302,3.0,5.0,87,0.00,,,0.00,0.000000,,2013-10-03 10:13:00,
2013-10-03 06:43:00,60.0,56.0,-100.00,NW,311,2.0,5.0,87,0.00,,,0.00,0.000000,,2013-10-03 10:43:00,
2013-10-03 06:52:00,60.0,56.0,-100.00,NW,311,2.0,5.0,87,0.00,,,0.00,0.000000,,2013-10-03 10:52:00,
2013-10-03 07:03:00,60.0,56.0,-100.00,NW,311,2.0,5.0,87,0.00,,,0.00,0.000000,,2013-10-03 11:03:00,
2013-10-03 07:12:00,60.0,56.0,-100.00,NW,311,2.0,5.0,87,0.00,,,0.00,0.000000,,2013-10-03 11:12:00,
2013-10-03 07:42:00,60.0,56.0,-100.00,WNW,300,1.0,3.0,88,0.00,,,0.00,0.000000,,2013-10-03 11:42:00,
2013-10-03 07:52:00,60.0,56.0,-100.00,WNW,300,1.0,3.0,88,0.00,,,0.00,0.000000,,2013-10-03 11:52:00,
2013-10-03 08:02:00,60.0,56.0,-100.00,WNW,300,1.0,3.0,88,0.00,,,0.00,0.000000,,2013-10-03 12:02:00,
2013-10-03 08:12:00,60.0,56.0,-100.00,WNW,300,1.0,3.0,88,0.00,,,0.00,0.000000,,2013-10-03 12:12:00,
2013-10-03 08:42:00,61.0,58.0,-100.00,SW,234,0.0,2.0,90,0.00,,,0.00,16.000000,,2013-10-03 12:42:00,
2013-10-03 08:52:00,61.0,58.0,-100.00,SW,234,0.0,2.0,90,0.00,,,0.00,16.000000,,2013-10-03 12:52:00,
2013-10-03 09:02:00,61.0,58.0,-100.00,SW,234,0.0,2.0,90,0.00,,,0.00,16.000000,,2013-10-03 13:02:00,
2013-10-03 09:11:00,61.0,58.0,-100.00,SW,234,0.0,2.0,90,0.00,,,0.00,16.000000,,2013-10-03 13:11:00,
2013-10-03 09:42:00,64.0,60.0,-100.00,South,183,0.0,0.0,87,0.00,,,0.00,56.000000,,2013-10-03 13:42:00,
2013-10-03 09:52:00,64.0,60.0,-100.00,South,183,0.0,0.0,87,0.00,,,0.00,56.000000,,2013-10-03 13:52:00,
2013-10-03 10:02:00,64.0,60.0,-100.00,South,183,0.0,0.0,87,0.00,,,0.00,56.000000,,2013-10-03 14:02:00,
2013-10-03 10:11:00,64.0,60.0,-100.00,South,183,0.0,0.0,87,0.00,,,0.00,56.000000,,2013-10-03 14:11:00,
2013-10-03 11:43:00,71.0,58.0,-100.00,SSE,168,3.0,7.0,64,-99.99,,,0.00,347.000000,,2013-10-03 15:43:00,
2013-10-03 11:54:00,71.0,58.0,-100.00,SSE,168,3.0,7.0,64,-99.99,,,0.00,347.000000,,2013-10-03 15:54:00,
2013-10-03 12:04:00,71.0,58.0,-100.00,SSE,168,3.0,7.0,64,-99.99,,,0.00,347.000000,,2013-10-03 16:04:00,
2013-10-03 12:13:00,71.0,58.0,-100.00,SSE,168,3.0,7.0,64,-99.99,,,0.00,347.000000,,2013-10-03 16:13:00,
2013-10-03 12:43:00,72.0,61.0,-100.00,NE,53,2.0,6.0,68,0.00,,,0.00,399.000000,,2013-10-03 16:43:00,
2013-10-03 12:53:00,72.0,61.0,-100.00,NE,53,2.0,6.0,68,0.00,,,0.00,399.000000,,2013-10-03 16:53:00,
2013-10-03 13:03:00,72.0,61.0,-100.00,NE,53,2.0,6.0,68,0.00,,,0.00,399.000000,,2013-10-03 17:03:00,
2013-10-03 13:12:00,72.0,61.0,-100.00,NE,53,2.0,6.0,68,0.00,,,0.00,399.000000,,2013-10-03 17:12:00,
2013-10-03 13:42:00,73.0,59.0,-100.00,WNW,302,2.0,7.0,62,0.00,,,0.00,348.000000,,2013-10-03 17:42:00,
2013-10-03 13:52:00,73.0,59.0,-100.00,WNW,302,2.0,7.0,62,0.00,,,0.00,348.000000,,2013-10-03 17:52:00,
2013-10-03 14:02:00,73.0,59.0,-100.00,WNW,302,2.0,7.0,62,0.00,,,0.00,348.000000,,2013-10-03 18:02:00,
2013-10-03 14:12:00,73.0,59.0,-100.00,WNW,302,2.0,7.0,62,0.00,,,0.00,348.000000,,2013-10-03 18:12:00,
2013-10-03 14:42:00,76.0,62.0,-100.00,West,275,3.0,6.0,63,0.00,,,0.00,445.000000,,2013-10-03 18:42:00,
2013-10-03 14:52:00,76.0,62.0,-100.00,West,275,3.0,6.0,63,0.00,,,0.00,445.000000,,2013-10-03 18:52:00,
2013-10-03 15:01:00,76.0,62.0,-100.00,West,275,3.0,6.0,63,0.00,,,0.00,445.000000,,2013-10-03 19:01:00,
2013-10-03 15:11:00,76.0,62.0,-100.00,West,275,3.0,6.0,63,0.00,,,0.00,445.000000,,2013-10-03 19:11:00,
2013-10-03 15:42:00,75.0,60.0,-100.00,SE,142,2.0,5.0,60,0.00,,,0.00,357.000000,,2013-10-03 19:42:00,
2013-10-03 15:53:00,75.0,60.0,-100.00,SE,142,2.0,5.0,60,0.00,,,0.00,357.000000,,2013-10-03 19:53:00,
2013-10-03 16:02:00,75.0,60.0,-100.00,SE,142,2.0,5.0,60,0.00,,,0.00,357.000000,,2013-10-03 20:02:00,
2013-10-03 16:12:00,75.0,60.0,-100.00,SE,142,2.0,5.0,60,0.00,,,0.00,357.000000,,2013-10-03 20:12:00,
2013-10-03 16:42:00,73.0,61.0,-100.00,South,171,1.0,4.0,66,0.00,,,0.00,162.000000,,2013-10-03 20:42:00,
2013-10-03 16:52:00,73.0,61.0,-100.00,South,171,1.0,4.0,66,0.00,,,0.00,162.000000,,2013-10-03 20:52:00,
2013-10-03 17:02:00,73.0,61.0,-100.00,South,171,1.0,4.0,66,0.00,,,0.00,162.000000,,2013-10-03 21:02:00,
2013-10-03 17:12:00,73.0,61.0,-100.00,South,171,1.0,4.0,66,0.00,,,0.00,162.000000,,2013-10-03 21:12:00,
2013-10-03 17:43:00,70.0,60.0,-100.00,NE,44,1.0,4.0,71,0.00,,,0.00,119.000000,,2013-10-03 21:43:00,
2013-10-03 17:54:00,70.0,60.0,-100.00,NE,44,1.0,4.0,71,0.00,,,0.00,119.000000,,2013-10-03 21:54:00,
2013-10-03 18:04:00,70.0,60.0,-100.00,NE,44,1.0,4.0,71,0.00,,,0.00,119.000000,,2013-10-03 22:04:00,
2013-10-03 18:13:00,70.0,60.0,-100.00,NE,44,1.0,4.0,71,0.00,,,0.00,119.000000,,2013-10-03 22:13:00,
2013-10-03 18:43:00,67.0,60.0,-100.00,South,172,2.0,4.0,77,0.00,,,0.00,53.000000,,2013-10-03 22:43:00,
2013-10-03 18:54:00,67.0,60.0,-100.00,South,172,2.0,4.0,77,0.00,,,0.00,53.000000,,2013-10-03 22:54:00,
2013-10-03 19:03:00,67.0,60.0,-100.00,South,172,2.0,4.0,77,0.00,,,0.00,53.000000,,2013-10-03 23:03:00,
2013-10-03 19:12:00,67.0,60.0,-100.00,South,172,2.0,4.0,77,0.00,,,0.00,53.000000,,2013-10-03 23:12:00,
2013-10-03 19:43:00,65.0,58.0,-100.00,SSE,159,3.0,6.0,78,0.00,,,0.00,20.000000,,2013-10-03 23:43:00,
2013-10-03 19:53:00,65.0,58.0,-100.00,SSE,159,3.0,6.0,78,0.00,,,0.00,20.000000,,2013-10-03 23:53:00,
2013-10-03 20:02:00,65.0,58.0,-100.00,SSE,159,3.0,6.0,78,0.00,,,0.00,20.000000,,2013-10-04 00:02:00,
2013-10-03 20:12:00,65.0,58.0,-100.00,SSE,159,3.0,6.0,78,0.00,,,0.00,20.000000,,2013-10-04 00:12:00,
2013-10-03 20:42:00,65.0,57.0,-100.00,South,172,3.0,6.0,75,0.00,,,0.00,0.000000,,2013-10-04 00:42:00,
2013-10-03 20:52:00,65.0,57.0,-100.00,South,172,3.0,6.0,75,0.00,,,0.00,0.000000,,2013-10-04 00:52:00,
2013-10-03 21:02:00,65.0,57.0,-100.00,South,172,3.0,6.0,75,0.00,,,0.00,0.000000,,2013-10-04 01:02:00,
2013-10-03 21:12:00,65.0,57.0,-100.00,South,172,3.0,6.0,75,0.00,,,0.00,0.000000,,2013-10-04 01:12:00,
2013-10-03 21:42:00,65.0,57.0,-100.00,South,179,2.0,6.0,76,0.00,,,0.00,0.000000,,2013-10-04 01:42:00,
2013-10-03 21:52:00,65.0,57.0,-100.00,South,179,2.0,6.0,76,0.00,,,0.00,0.000000,,2013-10-04 01:52:00,
2013-10-03 22:02:00,65.0,57.0,-100.00,South,179,2.0,6.0,76,0.00,,,0.00,0.000000,,2013-10-04 02:02:00,
2013-10-03 22:12:00,65.0,57.0,-100.00,South,179,2.0,6.0,76,0.00,,,0.00,0.000000,,2013-10-04 02:12:00,
2013-10-03 22:43:00,65.0,57.0,-100.00,SW,220,3.0,6.0,75,0.00,,,0.00,0.000000,,2013-10-04 02:43:00,
2013-10-03 22:52:00,65.0,57.0,-100.00,SW,220,3.0,6.0,75,0.00,,,0.00,0.000000,,2013-10-04 02:52:00,
2013-10-03 23:03:00,65.0,57.0,-100.00,SW,220,3.0,6.0,75,0.00,,,0.00,0.000000,,2013-10-04 03:03:00,
2013-10-03 23:12:00,65.0,57.0,-100.00,SW,220,3.0,6.0,75,0.00,,,0.00,0.000000,,2013-10-04 03:12:00,
2013-10-03 23:44:00,64.0,56.0,-100.00,SW,219,2.0,6.0,75,0.00,,,0.00,0.000000,,2013-10-04 03:44:00,